Oceanside, Oregon
Current Conditions -  °F | °C
As of 12:55 AM on Friday 24 Oct 2014 (Local Time) from KTMK Reporting Station
Overcast Overcast  
Wind Chill: 11°   Ceiling: 2200
Heat Index: 11°   Visibility: 10mi
Dew Point: 10°   Wind: 3mph
Humidity: 94%   Direction: 50°NE
Pressure: 30.02"   Gusts: NA
Location:  45.46°N, 123.97°W
Report Text: KTMK 240755Z AUTO 05003KT 10SM BKN022 BKN034 OVC070 11/10 A3002 RMK AO2 P0005
Loading
Personal Weather Stations






























Interactive Weather Map
Tropical Storm Tracking
New forecast layout! Learn more

10-Day Weather Forecast

Advertisements
Track Severe Weather on mobile